Time;durP1;ratioP1;P1;durP2;ratioP2;P2;SDS_P1;SDS_P2;PMS_P1;PMS_P2;Temp;Humidity;BMP_temperature;BMP_pressure;BME280_temperature;BME280_humidity;BME280_pressure;Samples;Min_cycle;Max_cycle;Signal;HPM_P1;HPM_P2
2023/09/15 00:00:17;;;;;;;70.38;66.75;;;;;;;;;;5037180;28;20048;-65
2023/09/15 00:02:43;;;;;;;31.83;30.15;;;;;;;;;;5041184;28;20487;-65
2023/09/15 00:05:12;;;;;;;54.83;52.05;;;;;;;;;;5040987;28;20068;-66
2023/09/15 00:07:38;;;;;;;59.90;56.90;;;;;;;;;;5039077;28;20033;-59
2023/09/15 00:10:06;;;;;;;47.83;45.38;;;;;;;;;;5038282;28;20483;-60
2023/09/15 00:12:31;;;;;;;50.88;48.30;;;;;;;;;;5050476;28;20033;-59
2023/09/15 00:14:57;;;;;;;29.83;28.25;;;;;;;;;;5038590;28;20503;-59
2023/09/15 00:17:24;;;;;;;34.67;32.78;;;;;;;;;;5039775;28;20029;-59
2023/09/15 00:19:51;;;;;;;35.88;33.60;;;;;;;;;;5038544;28;20412;-59
2023/09/15 00:22:16;;;;;;;40.38;38.00;;;;;;;;;;5037090;28;20036;-58
2023/09/15 00:24:41;;;;;;;38.40;36.42;;;;;;;;;;5048675;28;20087;-59
2023/09/15 00:27:07;;;;;;;39.17;37.15;;;;;;;;;;5042841;28;20420;-59
2023/09/15 00:29:32;;;;;;;34.30;32.53;;;;;;;;;;5032029;28;20137;-59
2023/09/15 00:31:57;;;;;;;35.78;33.88;;;;;;;;;;5037357;28;20045;-59
2023/09/15 00:34:23;;;;;;;34.60;32.78;;;;;;;;;;5036621;28;20224;-59
2023/09/15 00:36:49;;;;;;;33.25;31.50;;;;;;;;;;5038132;28;20033;-65
2023/09/15 00:39:14;;;;;;;28.90;27.33;;;;;;;;;;5034289;28;21223;-66
2023/09/15 00:41:40;;;;;;;30.67;29.08;;;;;;;;;;5034900;28;20057;-65
2023/09/15 00:44:05;;;;;;;28.88;27.38;;;;;;;;;;5035327;28;20038;-64
2023/09/15 00:46:31;;;;;;;32.17;30.48;;;;;;;;;;5054308;28;20024;-66
2023/09/15 00:48:57;;;;;;;31.05;29.45;;;;;;;;;;5024317;28;20127;-59
2023/09/15 00:51:24;;;;;;;29.58;27.92;;;;;;;;;;5036484;28;20029;-59
2023/09/15 00:53:50;;;;;;;28.67;27.08;;;;;;;;;;5037200;28;20069;-59
2023/09/15 00:56:17;;;;;;;29.92;28.38;;;;;;;;;;5020046;28;20116;-59
2023/09/15 00:58:44;;;;;;;29.50;27.85;;;;;;;;;;5020907;28;20040;-59
2023/09/15 01:01:10;;;;;;;27.13;25.70;;;;;;;;;;5033803;28;20041;-59
2023/09/15 01:03:41;;;;;;;31.05;29.25;;;;;;;;;;5035631;28;20423;-59
2023/09/15 01:06:08;;;;;;;29.52;28.00;;;;;;;;;;5051059;28;20032;-60
2023/09/15 01:08:34;;;;;;;31.33;29.70;;;;;;;;;;5020250;28;20274;-59
2023/09/15 01:11:04;;;;;;;34.15;32.35;;;;;;;;;;5025524;28;20383;-60
2023/09/15 01:13:34;;;;;;;33.40;31.67;;;;;;;;;;5038192;28;20103;-59
2023/09/15 01:16:23;;;;;;;35.90;33.95;;;;;;;;;;5036881;28;20377;-60
2023/09/15 01:19:13;;;;;;;32.33;30.63;;;;;;;;;;5038950;28;20061;-60
2023/09/15 01:22:10;;;;;;;32.08;30.30;;;;;;;;;;5038271;28;20039;-59
2023/09/15 01:25:13;;;;;;;28.20;26.70;;;;;;;;;;5035826;28;20022;-59
2023/09/15 01:27:53;;;;;;;28.58;27.05;;;;;;;;;;5037488;28;20367;-60
2023/09/15 01:30:21;;;;;;;29.13;27.58;;;;;;;;;;5020413;28;20475;-60
2023/09/15 01:32:49;;;;;;;28.83;27.27;;;;;;;;;;5034555;28;20068;-65
2023/09/15 01:35:15;;;;;;;26.75;25.35;;;;;;;;;;5035719;28;20037;-65
2023/09/15 01:37:40;;;;;;;26.20;24.70;;;;;;;;;;5039297;28;20037;-67
2023/09/15 01:40:07;;;;;;;25.55;24.15;;;;;;;;;;5040249;28;20495;-65
2023/09/15 01:42:32;;;;;;;24.55;23.13;;;;;;;;;;5044545;28;20561;-66
2023/09/15 01:44:58;;;;;;;24.63;23.33;;;;;;;;;;5038804;28;20029;-66
2023/09/15 01:47:24;;;;;;;25.15;23.75;;;;;;;;;;5037816;28;20041;-66
2023/09/15 01:49:52;;;;;;;22.85;21.65;;;;;;;;;;5038862;28;20040;-66
2023/09/15 01:52:19;;;;;;;24.85;23.33;;;;;;;;;;5038201;28;20037;-65
2023/09/15 01:54:45;;;;;;;24.58;23.25;;;;;;;;;;5024488;28;20025;-65
2023/09/15 01:57:10;;;;;;;24.23;22.92;;;;;;;;;;5057228;28;20470;-66
2023/09/15 01:59:36;;;;;;;25.88;24.38;;;;;;;;;;5038310;28;20088;-66
2023/09/15 02:02:01;;;;;;;27.58;26.10;;;;;;;;;;5039317;28;20501;-65
2023/09/15 02:04:26;;;;;;;25.52;24.13;;;;;;;;;;5036758;28;20030;-66
2023/09/15 02:06:52;;;;;;;30.20;28.60;;;;;;;;;;5038284;28;20563;-66
2023/09/15 02:09:18;;;;;;;23.80;22.50;;;;;;;;;;5038175;28;20040;-65
2023/09/15 02:11:43;;;;;;;23.95;22.55;;;;;;;;;;5038313;28;20428;-66
2023/09/15 02:14:08;;;;;;;22.92;21.73;;;;;;;;;;5019501;28;20448;-66
2023/09/15 02:16:34;;;;;;;21.83;20.63;;;;;;;;;;5027391;28;20072;-66
2023/09/15 02:19:00;;;;;;;22.27;21.08;;;;;;;;;;5037292;28;20051;-65
2023/09/15 02:21:26;;;;;;;23.05;21.73;;;;;;;;;;5040909;28;20512;-66
2023/09/15 02:23:51;;;;;;;23.50;22.20;;;;;;;;;;5037428;28;20690;-65
2023/09/15 02:26:17;;;;;;;23.63;22.33;;;;;;;;;;5036014;28;20064;-65
2023/09/15 02:28:43;;;;;;;21.55;20.35;;;;;;;;;;5056218;28;20039;-66
2023/09/15 02:31:08;;;;;;;20.75;19.63;;;;;;;;;;5058068;28;20065;-66
2023/09/15 02:33:36;;;;;;;24.58;23.25;;;;;;;;;;5022438;28;20124;-65
2023/09/15 02:36:03;;;;;;;24.92;23.60;;;;;;;;;;5038312;28;20051;-66
2023/09/15 02:38:29;;;;;;;24.85;23.48;;;;;;;;;;5037731;28;20472;-66
2023/09/15 02:40:54;;;;;;;26.65;25.23;;;;;;;;;;5036708;28;20051;-66
2023/09/15 02:43:20;;;;;;;31.05;29.25;;;;;;;;;;5055539;28;20304;-59
2023/09/15 02:45:45;;;;;;;28.50;27.02;;;;;;;;;;5037033;28;20061;-59
2023/09/15 02:48:11;;;;;;;23.98;22.67;;;;;;;;;;5039805;28;20099;-59
2023/09/15 02:50:43;;;;;;;25.45;24.08;;;;;;;;;;5038410;28;20116;-59
2023/09/15 02:53:09;;;;;;;28.60;26.95;;;;;;;;;;5040464;28;20040;-66
2023/09/15 02:55:37;;;;;;;28.08;26.52;;;;;;;;;;5038462;28;20037;-66
2023/09/15 02:58:04;;;;;;;24.85;23.50;;;;;;;;;;5037710;28;20045;-66
2023/09/15 03:00:30;;;;;;;31.23;29.55;;;;;;;;;;5037445;28;20532;-66
2023/09/15 03:02:56;;;;;;;30.33;28.70;;;;;;;;;;5019861;28;20132;-66
2023/09/15 03:05:21;;;;;;;29.58;28.00;;;;;;;;;;5034546;28;20596;-60
2023/09/15 03:07:46;;;;;;;24.58;23.27;;;;;;;;;;5037831;28;20044;-60
2023/09/15 03:10:12;;;;;;;26.60;25.08;;;;;;;;;;5037649;28;20388;-60
2023/09/15 03:12:37;;;;;;;25.90;24.50;;;;;;;;;;5039073;28;20037;-60
2023/09/15 03:15:05;;;;;;;26.67;25.20;;;;;;;;;;5037343;28;20044;-60
2023/09/15 03:17:31;;;;;;;26.73;25.30;;;;;;;;;;5039897;28;20021;-59
2023/09/15 03:19:57;;;;;;;27.70;26.17;;;;;;;;;;5041445;28;20363;-59
2023/09/15 03:22:22;;;;;;;30.42;28.85;;;;;;;;;;5024430;28;20036;-59
2023/09/15 03:24:47;;;;;;;31.70;30.05;;;;;;;;;;5025597;28;20041;-65
2023/09/15 03:27:13;;;;;;;30.88;29.25;;;;;;;;;;5043416;28;20032;-66
2023/09/15 03:29:38;;;;;;;28.15;26.60;;;;;;;;;;5022602;28;20132;-66
2023/09/15 03:32:03;;;;;;;30.92;29.27;;;;;;;;;;5038079;28;20037;-66
2023/09/15 03:34:29;;;;;;;29.52;27.98;;;;;;;;;;5037827;28;20033;-66
2023/09/15 03:36:55;;;;;;;25.30;23.95;;;;;;;;;;5038270;28;20058;-65
2023/09/15 03:39:21;;;;;;;26.77;25.30;;;;;;;;;;5038260;28;20021;-66
2023/09/15 03:41:47;;;;;;;28.00;26.50;;;;;;;;;;5039087;28;20029;-66
2023/09/15 03:44:12;;;;;;;30.00;28.15;;;;;;;;;;5040133;28;20464;-65
2023/09/15 03:46:39;;;;;;;27.67;26.20;;;;;;;;;;5037318;28;20064;-64
2023/09/15 03:49:05;;;;;;;26.23;24.83;;;;;;;;;;5040100;28;20034;-59
2023/09/15 03:51:30;;;;;;;25.92;24.55;;;;;;;;;;5035809;28;20035;-65
2023/09/15 03:53:55;;;;;;;24.30;23.00;;;;;;;;;;5035300;28;20100;-64
2023/09/15 03:56:21;;;;;;;24.90;23.55;;;;;;;;;;5035050;28;20048;-64
2023/09/15 03:58:48;;;;;;;24.35;23.05;;;;;;;;;;5036095;28;20364;-59
2023/09/15 04:01:14;;;;;;;24.95;23.63;;;;;;;;;;5036319;28;20041;-59
2023/09/15 04:03:40;;;;;;;25.33;23.95;;;;;;;;;;5039152;28;20123;-65
2023/09/15 04:06:06;;;;;;;24.83;23.42;;;;;;;;;;5038310;28;20128;-65
2023/09/15 04:08:32;;;;;;;24.02;22.73;;;;;;;;;;5038850;28;20040;-65
2023/09/15 04:10:57;;;;;;;26.65;25.25;;;;;;;;;;5037937;28;20033;-65
2023/09/15 04:13:23;;;;;;;24.38;23.08;;;;;;;;;;5037109;28;20506;-65
2023/09/15 04:15:50;;;;;;;24.15;22.85;;;;;;;;;;5038264;28;20356;-59
2023/09/15 04:18:15;;;;;;;23.55;22.25;;;;;;;;;;5041179;28;20037;-59
2023/09/15 04:20:41;;;;;;;23.38;22.08;;;;;;;;;;5038168;28;20043;-59
2023/09/15 04:23:06;;;;;;;23.42;22.13;;;;;;;;;;5039582;28;20112;-59
2023/09/15 04:25:31;;;;;;;24.85;23.35;;;;;;;;;;5037512;28;20037;-59
2023/09/15 04:27:57;;;;;;;26.15;24.75;;;;;;;;;;5036211;28;20116;-59
2023/09/15 04:30:22;;;;;;;24.70;23.33;;;;;;;;;;5020900;28;20372;-59
2023/09/15 04:32:47;;;;;;;26.25;24.85;;;;;;;;;;5038745;28;20125;-59
2023/09/15 04:35:13;;;;;;;26.95;25.50;;;;;;;;;;5037378;28;20037;-59
2023/09/15 04:37:38;;;;;;;26.95;25.52;;;;;;;;;;5037038;28;20110;-59
2023/09/15 04:40:06;;;;;;;27.15;25.67;;;;;;;;;;5036561;28;20033;-59
2023/09/15 04:42:33;;;;;;;28.58;27.08;;;;;;;;;;5037680;28;20025;-60
2023/09/15 04:44:58;;;;;;;27.75;26.25;;;;;;;;;;5018326;28;20997;-65
2023/09/15 04:47:35;;;;;;;28.85;27.25;;;;;;;;;;5024803;28;20098;-59
2023/09/15 04:50:01;;;;;;;32.47;30.60;;;;;;;;;;5037334;28;20029;-59
2023/09/15 04:52:26;;;;;;;30.15;28.52;;;;;;;;;;5036108;28;20037;-59
2023/09/15 04:54:56;;;;;;;31.42;29.75;;;;;;;;;;5037990;28;20036;-59
2023/09/15 04:57:22;;;;;;;28.08;26.58;;;;;;;;;;5034788;28;20044;-59
2023/09/15 04:59:48;;;;;;;29.50;27.80;;;;;;;;;;5037951;28;20045;-59
2023/09/15 05:02:14;;;;;;;31.92;30.23;;;;;;;;;;5036647;28;20079;-59
2023/09/15 05:04:40;;;;;;;34.58;32.75;;;;;;;;;;5024433;28;20095;-59
2023/09/15 05:07:06;;;;;;;32.10;30.42;;;;;;;;;;5037467;28;20472;-59
2023/09/15 05:09:31;;;;;;;33.78;31.98;;;;;;;;;;5037717;28;20035;-59
2023/09/15 05:11:57;;;;;;;30.77;29.13;;;;;;;;;;5036114;28;20029;-65
2023/09/15 05:14:22;;;;;;;32.22;30.52;;;;;;;;;;5037957;28;20032;-59
2023/09/15 05:16:48;;;;;;;31.65;29.90;;;;;;;;;;5035668;28;20036;-66
2023/09/15 05:19:14;;;;;;;29.75;28.15;;;;;;;;;;5041318;28;20041;-59
2023/09/15 05:21:40;;;;;;;29.73;28.15;;;;;;;;;;5032701;28;20064;-59
2023/09/15 05:24:05;;;;;;;30.25;28.65;;;;;;;;;;5037781;28;20115;-60
2023/09/15 05:26:31;;;;;;;31.63;29.92;;;;;;;;;;5037817;28;20423;-66
2023/09/15 05:28:57;;;;;;;31.60;29.90;;;;;;;;;;5034631;28;20052;-65
2023/09/15 05:31:25;;;;;;;30.95;29.33;;;;;;;;;;5036752;28;20036;-59
2023/09/15 05:33:53;;;;;;;29.15;27.55;;;;;;;;;;5036059;28;21091;-59
2023/09/15 05:36:18;;;;;;;27.77;26.30;;;;;;;;;;5039677;28;20029;-61
2023/09/15 05:38:45;;;;;;;29.65;28.05;;;;;;;;;;5036604;28;20636;-59
2023/09/15 05:41:10;;;;;;;31.08;29.45;;;;;;;;;;5038891;28;20410;-67
2023/09/15 05:43:36;;;;;;;32.72;30.90;;;;;;;;;;5034050;28;20033;-66
2023/09/15 05:46:01;;;;;;;31.40;29.75;;;;;;;;;;5037359;28;20033;-61
2023/09/15 05:48:27;;;;;;;29.67;28.08;;;;;;;;;;5037412;28;20131;-61
2023/09/15 05:50:52;;;;;;;31.40;29.60;;;;;;;;;;5037801;28;20368;-61
2023/09/15 05:53:18;;;;;;;31.83;30.05;;;;;;;;;;5035020;28;20038;-61
2023/09/15 05:55:43;;;;;;;34.15;32.28;;;;;;;;;;5054176;28;20024;-61
2023/09/15 05:58:08;;;;;;;30.25;28.65;;;;;;;;;;5038465;28;20653;-59
2023/09/15 06:00:34;;;;;;;34.90;32.78;;;;;;;;;;5036765;28;20033;-59
2023/09/15 06:02:59;;;;;;;30.73;29.10;;;;;;;;;;5035597;28;20029;-59
2023/09/15 06:05:25;;;;;;;28.77;27.17;;;;;;;;;;5035772;28;20033;-59
2023/09/15 06:07:54;;;;;;;31.08;29.38;;;;;;;;;;5038323;28;20069;-59
2023/09/15 06:10:20;;;;;;;31.67;29.83;;;;;;;;;;5017550;28;20040;-60
2023/09/15 06:12:49;;;;;;;33.67;31.80;;;;;;;;;;5018833;28;20115;-60
2023/09/15 06:15:15;;;;;;;32.85;31.05;;;;;;;;;;5033025;28;20037;-60
2023/09/15 06:17:40;;;;;;;31.88;29.98;;;;;;;;;;5037141;28;20039;-59
2023/09/15 06:20:06;;;;;;;31.45;29.70;;;;;;;;;;5040143;28;20039;-59
2023/09/15 06:22:32;;;;;;;34.60;32.80;;;;;;;;;;5030962;28;20048;-59
2023/09/15 06:24:58;;;;;;;35.83;33.92;;;;;;;;;;5039552;28;20040;-59
2023/09/15 06:27:23;;;;;;;36.30;34.08;;;;;;;;;;5031493;28;20037;-59
2023/09/15 06:29:48;;;;;;;33.58;31.73;;;;;;;;;;5041624;28;20360;-60
2023/09/15 06:32:14;;;;;;;42.28;40.08;;;;;;;;;;5040905;28;20144;-59
2023/09/15 06:34:39;;;;;;;41.20;39.10;;;;;;;;;;5039500;28;20116;-59
2023/09/15 06:37:05;;;;;;;41.75;39.58;;;;;;;;;;5038625;28;20104;-59
2023/09/15 06:39:31;;;;;;;41.03;38.92;;;;;;;;;;5038550;28;20064;-59
2023/09/15 06:41:57;;;;;;;43.53;41.03;;;;;;;;;;5038412;28;20480;-59
2023/09/15 06:44:23;;;;;;;48.30;45.83;;;;;;;;;;5038686;28;20053;-59
2023/09/15 06:46:48;;;;;;;41.45;39.25;;;;;;;;;;5037827;28;20033;-59
2023/09/15 06:49:16;;;;;;;41.42;39.30;;;;;;;;;;5039979;28;20029;-59
2023/09/15 06:51:41;;;;;;;40.92;38.83;;;;;;;;;;5037602;28;20083;-59
2023/09/15 06:54:07;;;;;;;44.03;41.72;;;;;;;;;;5042323;28;20033;-59
2023/09/15 06:56:32;;;;;;;40.13;37.97;;;;;;;;;;5038881;28;20035;-64
2023/09/15 06:58:57;;;;;;;42.55;39.55;;;;;;;;;;5040246;28;20039;-64
2023/09/15 07:01:23;;;;;;;43.53;41.22;;;;;;;;;;5037278;28;20048;-65
2023/09/15 07:03:48;;;;;;;44.30;42.03;;;;;;;;;;5038534;28;20036;-65
2023/09/15 07:06:13;;;;;;;42.83;40.63;;;;;;;;;;5038728;28;20043;-65
2023/09/15 07:08:39;;;;;;;46.97;44.58;;;;;;;;;;5039835;28;20041;-65
2023/09/15 07:11:05;;;;;;;39.70;37.63;;;;;;;;;;5041385;28;20379;-64
2023/09/15 07:13:30;;;;;;;34.15;32.40;;;;;;;;;;5038533;28;20043;-65
2023/09/15 07:15:55;;;;;;;36.03;34.15;;;;;;;;;;5041113;28;20115;-65
2023/09/15 07:18:21;;;;;;;39.53;37.47;;;;;;;;;;5037868;28;20025;-65
2023/09/15 07:20:46;;;;;;;36.35;34.40;;;;;;;;;;5026853;28;20025;-64
2023/09/15 07:23:11;;;;;;;38.60;36.60;;;;;;;;;;5037270;28;20080;-64
2023/09/15 07:25:37;;;;;;;34.92;33.13;;;;;;;;;;5039874;28;20041;-64
2023/09/15 07:28:03;;;;;;;31.30;29.65;;;;;;;;;;5038202;28;20053;-64
2023/09/15 07:30:29;;;;;;;27.40;25.95;;;;;;;;;;5020655;28;20024;-65
2023/09/15 07:32:54;;;;;;;27.52;26.05;;;;;;;;;;5053025;28;20045;-65
2023/09/15 07:35:22;;;;;;;25.17;23.73;;;;;;;;;;5035851;28;20032;-65
2023/09/15 07:37:48;;;;;;;22.10;20.90;;;;;;;;;;5025280;28;20380;-65
2023/09/15 07:40:13;;;;;;;21.35;20.15;;;;;;;;;;5038460;28;20845;-65
2023/09/15 07:42:38;;;;;;;19.80;18.52;;;;;;;;;;5035777;28;20037;-64
2023/09/15 07:45:04;;;;;;;17.42;16.42;;;;;;;;;;5037592;28;20045;-64
2023/09/15 07:47:30;;;;;;;16.83;15.82;;;;;;;;;;5039185;28;20526;-65
2023/09/15 07:49:57;;;;;;;17.33;16.33;;;;;;;;;;5039906;28;20030;-65
2023/09/15 07:52:24;;;;;;;15.75;14.75;;;;;;;;;;5036248;28;20387;-64
2023/09/15 07:54:50;;;;;;;14.20;13.35;;;;;;;;;;5021399;28;20099;-65
2023/09/15 07:57:15;;;;;;;13.63;12.82;;;;;;;;;;5035772;28;20036;-64
2023/09/15 07:59:41;;;;;;;12.73;11.98;;;;;;;;;;5036441;28;20055;-64
2023/09/15 08:02:06;;;;;;;14.25;13.45;;;;;;;;;;5039897;28;20037;-63
2023/09/15 08:04:32;;;;;;;13.18;12.35;;;;;;;;;;5038280;28;20033;-64
2023/09/15 08:06:57;;;;;;;13.32;12.52;;;;;;;;;;5037203;28;20029;-64
2023/09/15 08:09:23;;;;;;;13.55;12.75;;;;;;;;;;5023321;28;20136;-58
2023/09/15 08:11:48;;;;;;;13.88;12.88;;;;;;;;;;5040053;28;20368;-58
2023/09/15 08:14:13;;;;;;;13.35;12.55;;;;;;;;;;5037263;28;20025;-63
2023/09/15 08:16:39;;;;;;;12.98;12.18;;;;;;;;;;5037760;28;20051;-64
2023/09/15 08:19:04;;;;;;;12.75;11.95;;;;;;;;;;5036602;28;20517;-58
2023/09/15 08:21:30;;;;;;;13.25;12.45;;;;;;;;;;5040038;28;20029;-58
2023/09/15 08:23:56;;;;;;;14.70;13.80;;;;;;;;;;5038077;28;20048;-58
2023/09/15 08:26:21;;;;;;;15.00;14.15;;;;;;;;;;5035958;28;20029;-59
2023/09/15 08:28:47;;;;;;;15.20;14.20;;;;;;;;;;5035909;28;20050;-58
2023/09/15 08:31:13;;;;;;;15.50;14.50;;;;;;;;;;5038131;28;20040;-58
2023/09/15 08:33:38;;;;;;;15.00;14.10;;;;;;;;;;5037865;28;20033;-58
2023/09/15 08:36:04;;;;;;;15.50;14.50;;;;;;;;;;5046660;28;20141;-58
2023/09/15 08:38:31;;;;;;;16.35;15.45;;;;;;;;;;5036655;28;20679;-59
2023/09/15 08:41:16;;;;;;;16.08;15.18;;;;;;;;;;5010381;28;20627;-58
2023/09/15 08:43:43;;;;;;;16.70;15.65;;;;;;;;;;5035963;28;20106;-59
2023/09/15 08:46:08;;;;;;;17.75;16.45;;;;;;;;;;5032496;28;20044;-59
2023/09/15 08:48:40;;;;;;;17.15;16.15;;;;;;;;;;5038066;28;20036;-59
2023/09/15 08:51:06;;;;;;;17.52;16.42;;;;;;;;;;5034533;28;20037;-58
2023/09/15 08:53:32;;;;;;;16.77;15.77;;;;;;;;;;5034650;28;20048;-59
2023/09/15 08:55:58;;;;;;;17.85;16.85;;;;;;;;;;5023151;28;20029;-59
2023/09/15 08:58:25;;;;;;;17.33;16.33;;;;;;;;;;5037830;28;20037;-59
2023/09/15 09:00:52;;;;;;;18.95;17.85;;;;;;;;;;5031505;28;20030;-59
2023/09/15 09:03:22;;;;;;;20.67;19.48;;;;;;;;;;5035475;28;20033;-59
2023/09/15 09:05:49;;;;;;;23.08;21.80;;;;;;;;;;5036058;28;20048;-59
2023/09/15 09:08:17;;;;;;;28.63;27.08;;;;;;;;;;5032988;28;20483;-59
2023/09/15 09:10:44;;;;;;;21.98;20.67;;;;;;;;;;5023001;28;20430;-59
2023/09/15 09:13:10;;;;;;;22.42;21.20;;;;;;;;;;5033667;28;20048;-59
2023/09/15 09:15:37;;;;;;;23.27;21.98;;;;;;;;;;5033963;28;20056;-59
2023/09/15 09:18:16;;;;;;;22.50;21.30;;;;;;;;;;5034492;28;20029;-59
2023/09/15 09:20:42;;;;;;;23.77;22.48;;;;;;;;;;5038321;28;20033;-59
2023/09/15 09:23:09;;;;;;;29.67;28.08;;;;;;;;;;5036408;28;20029;-59
2023/09/15 09:25:35;;;;;;;36.10;34.22;;;;;;;;;;5022878;28;20120;-59
2023/09/15 09:28:01;;;;;;;34.85;33.00;;;;;;;;;;5034038;28;20037;-59
2023/09/15 09:30:29;;;;;;;37.13;35.15;;;;;;;;;;5021150;28;20040;-59
2023/09/15 09:32:58;;;;;;;38.85;36.10;;;;;;;;;;5036547;28;20056;-59
2023/09/15 09:35:25;;;;;;;32.72;31.00;;;;;;;;;;5036401;28;20033;-59
2023/09/15 09:37:52;;;;;;;46.13;43.78;;;;;;;;;;5039070;28;20041;-59
2023/09/15 09:40:19;;;;;;;39.63;37.58;;;;;;;;;;5038135;28;20082;-59
2023/09/15 09:42:45;;;;;;;47.10;44.33;;;;;;;;;;5038905;28;20033;-59
2023/09/15 09:45:11;;;;;;;50.03;47.42;;;;;;;;;;5038887;28;20044;-59
2023/09/15 09:47:37;;;;;;;49.92;47.25;;;;;;;;;;5051114;28;20159;-59
2023/09/15 09:50:09;;;;;;;60.00;56.88;;;;;;;;;;5039417;28;20053;-59
2023/09/15 09:52:35;;;;;;;66.22;62.92;;;;;;;;;;5034114;28;20063;-59
2023/09/15 09:55:05;;;;;;;56.90;53.97;;;;;;;;;;5039429;28;20363;-59
2023/09/15 09:57:31;;;;;;;72.90;69.23;;;;;;;;;;5038894;28;20112;-59
2023/09/15 09:59:57;;;;;;;100.10;95.10;;;;;;;;;;5036322;28;20069;-59
2023/09/15 10:02:22;;;;;;;131.23;124.75;;;;;;;;;;5041339;28;20071;-59
2023/09/15 10:04:48;;;;;;;74.03;70.32;;;;;;;;;;5023730;28;20041;-59
2023/09/15 10:07:13;;;;;;;110.47;105.05;;;;;;;;;;5039916;28;20095;-60
2023/09/15 10:09:39;;;;;;;136.90;130.18;;;;;;;;;;5040651;28;20619;-60
2023/09/15 10:12:05;;;;;;;94.55;89.72;;;;;;;;;;5040758;28;20416;-61
2023/09/15 10:14:31;;;;;;;136.57;129.88;;;;;;;;;;5039993;28;20401;-65
2023/09/15 10:16:57;;;;;;;121.15;115.20;;;;;;;;;;5038388;28;20040;-66
2023/09/15 10:19:24;;;;;;;131.25;124.80;;;;;;;;;;5041200;28;20063;-66
2023/09/15 10:21:50;;;;;;;119.47;113.43;;;;;;;;;;5041248;28;20361;-66
2023/09/15 10:24:15;;;;;;;120.80;114.90;;;;;;;;;;5038825;28;20030;-66
2023/09/15 10:26:41;;;;;;;85.25;81.00;;;;;;;;;;5040767;28;20141;-61
2023/09/15 10:29:16;;;;;;;62.17;59.08;;;;;;;;;;5040688;28;20422;-66
2023/09/15 10:31:42;;;;;;;102.68;97.60;;;;;;;;;;5040970;28;20484;-66
2023/09/15 10:34:09;;;;;;;91.32;86.82;;;;;;;;;;5044109;28;20025;-61
2023/09/15 10:36:34;;;;;;;69.03;65.05;;;;;;;;;;5037488;28;20045;-61
2023/09/15 10:39:13;;;;;;;70.60;67.10;;;;;;;;;;5040213;28;20125;-65
2023/09/15 10:41:39;;;;;;;50.28;47.70;;;;;;;;;;5036018;28;20608;-60
2023/09/15 10:44:04;;;;;;;52.47;49.75;;;;;;;;;;5039119;28;20046;-60
2023/09/15 10:46:38;;;;;;;49.03;46.53;;;;;;;;;;5024347;28;20033;-60
2023/09/15 10:49:32;;;;;;;58.80;55.88;;;;;;;;;;5041201;28;20068;-60
2023/09/15 10:52:00;;;;;;;55.85;53.00;;;;;;;;;;5029990;28;20613;-60
2023/09/15 10:54:35;;;;;;;109.20;103.80;;;;;;;;;;5038741;28;20388;-60
2023/09/15 10:57:01;;;;;;;59.10;56.15;;;;;;;;;;5035352;28;20034;-60
2023/09/15 10:59:28;;;;;;;152.50;145.02;;;;;;;;;;5036992;28;20474;-60
2023/09/15 11:01:54;;;;;;;105.28;100.07;;;;;;;;;;5039907;28;20047;-65
2023/09/15 11:04:25;;;;;;;87.97;83.63;;;;;;;;;;5038947;28;20037;-66
2023/09/15 11:06:51;;;;;;;117.38;111.60;;;;;;;;;;5037928;28;20064;-66
2023/09/15 11:09:18;;;;;;;221.40;210.68;;;;;;;;;;5042821;28;20041;-65
2023/09/15 11:11:45;;;;;;;260.10;247.43;;;;;;;;;;5039677;28;20029;-65
2023/09/15 11:14:37;;;;;;;267.52;254.50;;;;;;;;;;5038823;28;20041;-60
2023/09/15 11:17:03;;;;;;;271.90;258.65;;;;;;;;;;5037617;28;20056;-66
2023/09/15 11:19:32;;;;;;;246.20;234.27;;;;;;;;;;5041433;28;20048;-65
2023/09/15 11:22:02;;;;;;;250.07;237.88;;;;;;;;;;5038192;28;20091;-66
2023/09/15 11:24:28;;;;;;;;;;;;;;;;;;5026794;28;20079;-66
2023/09/15 11:26:54;;;;;;;277.17;263.80;;;;;;;;;;5039685;28;19924;-66
2023/09/15 11:29:28;;;;;;;185.60;176.50;;;;;;;;;;5037418;28;20403;-60
2023/09/15 11:31:54;;;;;;;132.70;126.10;;;;;;;;;;5038187;28;20033;-59
2023/09/15 11:34:20;;;;;;;155.75;147.65;;;;;;;;;;5025992;28;20033;-60
2023/09/15 11:36:47;;;;;;;174.50;165.88;;;;;;;;;;5041445;28;20032;-60
2023/09/15 11:39:15;;;;;;;119.00;113.13;;;;;;;;;;5022281;28;20037;-60
2023/09/15 11:41:53;;;;;;;134.95;128.30;;;;;;;;;;5039524;28;20059;-60
2023/09/15 11:44:20;;;;;;;102.97;97.90;;;;;;;;;;5037044;28;20030;-66
2023/09/15 11:46:47;;;;;;;106.82;101.53;;;;;;;;;;5025937;28;20051;-66
2023/09/15 11:49:14;;;;;;;96.45;91.70;;;;;;;;;;5036465;28;20151;-67
2023/09/15 11:51:39;;;;;;;74.80;71.00;;;;;;;;;;5026157;28;20045;-66
2023/09/15 11:54:06;;;;;;;100.95;95.95;;;;;;;;;;5035577;28;20091;-66
2023/09/15 11:56:32;;;;;;;117.97;112.15;;;;;;;;;;5022781;28;20098;-67
2023/09/15 11:58:59;;;;;;;89.15;84.68;;;;;;;;;;5040867;28;20056;-66
2023/09/15 12:01:24;;;;;;;21.52;20.33;;;;;;;;;;5040301;28;20510;-66
2023/09/15 12:03:51;;;;;;;24.98;23.58;;;;;;;;;;5039749;28;20040;-59
2023/09/15 12:06:18;;;;;;;26.88;25.42;;;;;;;;;;5019914;28;21134;-60
2023/09/15 12:08:49;;;;;;;30.23;28.63;;;;;;;;;;5037315;28;20613;-66
2023/09/15 12:11:16;;;;;;;30.95;29.35;;;;;;;;;;5037465;28;20037;-59
2023/09/15 12:13:42;;;;;;;23.58;22.30;;;;;;;;;;5034396;28;20412;-65
2023/09/15 12:16:17;;;;;;;29.13;27.60;;;;;;;;;;5017264;28;20048;-60
2023/09/15 12:18:45;;;;;;;25.83;24.42;;;;;;;;;;5037310;28;20120;-60
2023/09/15 12:21:12;;;;;;;23.02;21.73;;;;;;;;;;5034211;28;20048;-59
2023/09/15 12:23:37;;;;;;;24.90;23.50;;;;;;;;;;5037817;28;20028;-60
2023/09/15 12:26:03;;;;;;;21.60;20.40;;;;;;;;;;5035230;28;20048;-60
2023/09/15 12:28:29;;;;;;;24.92;22.63;;;;;;;;;;5041661;28;20612;-59
2023/09/15 12:30:57;;;;;;;23.20;21.98;;;;;;;;;;5036330;28;20094;-66
2023/09/15 12:33:24;;;;;;;22.40;21.20;;;;;;;;;;5036326;28;20028;-63
2023/09/15 12:35:50;;;;;;;22.20;21.00;;;;;;;;;;5039869;28;20036;-66
2023/09/15 12:38:19;;;;;;;21.08;19.98;;;;;;;;;;5033022;28;20039;-66
2023/09/15 12:40:50;;;;;;;20.42;19.33;;;;;;;;;;5017601;28;20160;-66
2023/09/15 12:43:15;;;;;;;22.45;21.23;;;;;;;;;;5038054;28;20076;-66
2023/09/15 12:45:41;;;;;;;23.75;22.45;;;;;;;;;;5036305;28;20033;-67
2023/09/15 12:48:08;;;;;;;21.65;20.45;;;;;;;;;;5034453;28;20056;-67
2023/09/15 12:50:35;;;;;;;23.20;21.80;;;;;;;;;;5022307;28;20119;-60
2023/09/15 12:53:01;;;;;;;23.27;22.05;;;;;;;;;;5033842;28;20140;-66
2023/09/15 12:55:27;;;;;;;20.80;19.70;;;;;;;;;;5036320;28;20485;-65
2023/09/15 12:57:53;;;;;;;24.00;22.70;;;;;;;;;;5021063;28;20857;-66
2023/09/15 13:00:18;;;;;;;21.27;20.15;;;;;;;;;;5035275;28;20067;-67
2023/09/15 13:02:44;;;;;;;20.42;19.33;;;;;;;;;;5038474;28;20036;-67
2023/09/15 13:05:09;;;;;;;21.75;20.55;;;;;;;;;;5035934;28;20060;-67
2023/09/15 13:07:42;;;;;;;23.88;22.48;;;;;;;;;;5036079;28;20478;-60
2023/09/15 13:10:11;;;;;;;22.73;21.45;;;;;;;;;;5037872;28;20032;-60
2023/09/15 13:12:38;;;;;;;24.13;22.83;;;;;;;;;;5021290;28;20068;-60
2023/09/15 13:15:04;;;;;;;23.38;22.10;;;;;;;;;;5034262;28;20040;-66
2023/09/15 13:17:30;;;;;;;21.10;19.98;;;;;;;;;;5038726;28;20600;-60
2023/09/15 13:20:06;;;;;;;25.73;24.35;;;;;;;;;;5033375;28;20049;-60
2023/09/15 13:22:36;;;;;;;23.25;22.02;;;;;;;;;;5036665;28;20032;-60
2023/09/15 13:25:03;;;;;;;21.20;20.05;;;;;;;;;;5037113;28;20033;-67
2023/09/15 13:27:29;;;;;;;23.25;21.98;;;;;;;;;;5036494;28;20049;-66
2023/09/15 13:29:57;;;;;;;23.50;22.25;;;;;;;;;;5039893;28;20250;-60
2023/09/15 13:32:27;;;;;;;26.23;24.83;;;;;;;;;;5040784;28;20123;-60
2023/09/15 13:34:53;;;;;;;22.77;21.58;;;;;;;;;;5039328;28;20670;-66
2023/09/15 13:37:20;;;;;;;24.70;23.40;;;;;;;;;;5041790;28;20526;-66
2023/09/15 13:39:46;;;;;;;23.98;22.70;;;;;;;;;;5042692;28;20056;-68
2023/09/15 13:42:11;;;;;;;24.48;23.17;;;;;;;;;;5039521;28;20083;-68
2023/09/15 13:44:37;;;;;;;21.60;20.40;;;;;;;;;;5038656;28;20388;-58
2023/09/15 13:47:03;;;;;;;22.83;21.08;;;;;;;;;;5040614;28;20036;-65
2023/09/15 13:49:29;;;;;;;23.75;22.45;;;;;;;;;;5041527;28;20541;-66
2023/09/15 13:51:54;;;;;;;26.15;24.75;;;;;;;;;;5042818;28;20375;-65
2023/09/15 13:54:20;;;;;;;23.10;21.83;;;;;;;;;;5038323;28;20029;-65
2023/09/15 13:56:45;;;;;;;22.30;21.00;;;;;;;;;;5040815;28;20360;-65
2023/09/15 13:59:11;;;;;;;23.17;21.90;;;;;;;;;;5041035;28;20056;-58
2023/09/15 14:01:39;;;;;;;31.92;30.25;;;;;;;;;;5036144;28;20064;-64
2023/09/15 14:04:06;;;;;;;25.20;23.85;;;;;;;;;;5039224;28;20036;-59
2023/09/15 14:06:31;;;;;;;22.85;21.55;;;;;;;;;;5036801;28;20365;-59
2023/09/15 14:08:57;;;;;;;24.98;23.67;;;;;;;;;;5038778;28;20097;-66
2023/09/15 14:11:22;;;;;;;25.55;24.20;;;;;;;;;;5039343;28;20029;-66
2023/09/15 14:13:47;;;;;;;27.58;26.08;;;;;;;;;;5039564;28;20037;-63